Time;durP1;ratioP1;P1;durP2;ratioP2;P2;SDS_P1;SDS_P2;PMS_P1;PMS_P2;Temp;Humidity;BMP_temperature;BMP_pressure;BME280_temperature;BME280_humidity;BME280_pressure;Samples;Min_cycle;Max_cycle;Signal;HPM_P1;HPM_P2
2022/06/05 15:48:02;;;;;;;3.17;2.05;;;;;;;;;;5112037;27;20325;-72
2022/06/05 15:50:31;;;;;;;3.60;2.20;;;;;;;;;;5112743;28;20097;-72
2022/06/05 15:53:12;;;;;;;1.88;1.63;;;;;;;;;;5111779;28;20040;-72
2022/06/05 15:55:41;;;;;;;3.53;1.80;;;;;;;;;;5111952;28;20050;-72
2022/06/05 15:58:20;;;;;;;5.00;1.70;;;;;;;;;;5112160;28;20028;-72
2022/06/05 16:01:05;;;;;;;3.33;1.80;;;;;;;;;;5111872;28;20039;-72
2022/06/05 16:03:43;;;;;;;4.32;1.95;;;;;;;;;;5111885;28;20499;-72
2022/06/05 16:06:14;;;;;;;1.60;1.40;;;;;;;;;;5111590;28;20051;-72
2022/06/05 16:08:49;;;;;;;4.30;2.00;;;;;;;;;;5112124;28;20039;-72
2022/06/05 16:11:19;;;;;;;1.90;1.50;;;;;;;;;;5112334;28;20122;-72
2022/06/05 16:14:05;;;;;;;2.47;1.70;;;;;;;;;;5111823;28;20029;-72
2022/06/05 16:16:44;;;;;;;7.28;1.92;;;;;;;;;;5111572;28;20112;-71
2022/06/05 16:19:16;;;;;;;3.10;1.83;;;;;;;;;;5111811;28;20126;-71
2022/06/05 16:21:42;;;;;;;4.22;1.92;;;;;;;;;;5111333;28;20039;-71
2022/06/05 16:24:16;;;;;;;3.40;1.90;;;;;;;;;;5111805;28;20097;-71
2022/06/05 16:26:57;;;;;;;2.78;1.90;;;;;;;;;;5111627;28;20533;-72
2022/06/05 16:29:24;;;;;;;2.03;1.77;;;;;;;;;;5111671;28;20115;-71
2022/06/05 16:31:53;;;;;;;2.95;1.83;;;;;;;;;;5111330;28;20046;-71
2022/06/05 16:40:06;;;;;;;2.72;1.88;;;;;;;;;;5111199;28;20461;-71
2022/06/05 16:42:38;;;;;;;3.08;1.80;;;;;;;;;;5111097;28;20401;-71
2022/06/05 16:45:04;;;;;;;3.22;1.80;;;;;;;;;;5111361;28;20048;-71
2022/06/05 16:47:39;;;;;;;4.43;2.15;;;;;;;;;;5110799;28;20142;-71
2022/06/05 16:50:16;;;;;;;2.22;1.75;;;;;;;;;;5111117;28;20047;-71
2022/06/05 16:52:43;;;;;;;3.25;1.95;;;;;;;;;;5111499;28;20044;-71
2022/06/05 16:55:18;;;;;;;3.10;1.65;;;;;;;;;;5111105;28;20050;-71
2022/06/05 16:57:46;;;;;;;2.03;1.80;;;;;;;;;;5097630;28;20165;-71
2022/06/05 17:00:12;;;;;;;2.13;1.90;;;;;;;;;;5075599;28;20047;-71
2022/06/05 17:02:50;;;;;;;2.92;2.28;;;;;;;;;;5076165;28;20575;-71
2022/06/05 17:05:17;;;;;;;3.28;2.17;;;;;;;;;;5076884;28;20044;-71
2022/06/05 17:07:54;;;;;;;2.83;1.80;;;;;;;;;;5076787;28;20032;-71
2022/06/05 17:10:32;;;;;;;3.72;2.15;;;;;;;;;;5077484;28;20483;-71
2022/06/05 17:12:59;;;;;;;4.15;1.83;;;;;;;;;;5077538;28;20382;-71
2022/06/05 17:15:43;;;;;;;3.72;1.73;;;;;;;;;;5076710;28;20052;-71
2022/06/05 17:18:18;;;;;;;2.60;1.85;;;;;;;;;;5076869;28;20035;-71
2022/06/05 17:20:51;;;;;;;2.35;1.90;;;;;;;;;;5076357;28;20495;-71
2022/06/05 17:23:18;;;;;;;2.38;1.58;;;;;;;;;;5076850;28;20554;-71
2022/06/05 17:26:03;;;;;;;2.78;1.70;;;;;;;;;;5076752;28;20048;-71
2022/06/05 17:28:44;;;;;;;3.05;1.60;;;;;;;;;;5076361;28;20427;-71
2022/06/05 17:31:13;;;;;;;3.22;1.52;;;;;;;;;;5075378;28;20383;-71
2022/06/05 17:33:52;;;;;;;2.60;1.70;;;;;;;;;;5075382;28;20062;-71
2022/06/05 17:36:21;;;;;;;2.25;1.40;;;;;;;;;;5076496;28;20054;-71
2022/06/05 17:38:56;;;;;;;4.78;1.67;;;;;;;;;;5076798;28;20562;-71
2022/06/05 17:41:38;;;;;;;1.83;1.45;;;;;;;;;;5076102;28;20450;-70
2022/06/05 17:44:08;;;;;;;1.73;1.58;;;;;;;;;;5092971;28;20032;-71
2022/06/05 17:46:42;;;;;;;2.92;1.63;;;;;;;;;;5094517;28;20055;-71
2022/06/05 17:49:08;;;;;;;2.13;1.55;;;;;;;;;;5095988;28;20072;-71
2022/06/05 17:51:35;;;;;;;2.55;1.52;;;;;;;;;;5095335;28;20483;-71
2022/06/05 17:54:12;;;;;;;2.00;1.70;;;;;;;;;;5095702;28;20036;-71
2022/06/05 17:56:42;;;;;;;4.55;1.98;;;;;;;;;;5095099;28;20537;-71
2022/06/05 17:59:25;;;;;;;2.67;2.47;;;;;;;;;;5094871;28;20042;-71
2022/06/05 18:01:51;;;;;;;2.85;1.30;;;;;;;;;;5095126;28;20086;-71
2022/06/05 18:04:26;;;;;;;2.28;1.83;;;;;;;;;;5095334;28;20047;-71
2022/06/05 18:06:52;;;;;;;1.77;1.58;;;;;;;;;;5094908;28;20101;-71
2022/06/05 18:09:23;;;;;;;3.25;1.60;;;;;;;;;;5094378;28;20498;-72
2022/06/05 18:11:49;;;;;;;;;;;;;;;;;;5095290;28;20122;-71
2022/06/05 18:14:21;;;;;;;1.63;1.52;;;;;;;;;;5094756;28;19947;-71
2022/06/05 18:16:48;;;;;;;2.42;1.83;;;;;;;;;;5095194;28;20081;-72
2022/06/05 18:19:25;;;;;;;3.90;1.45;;;;;;;;;;5095313;28;20490;-71
2022/06/05 18:21:54;;;;;;;4.65;2.30;;;;;;;;;;5094366;28;20116;-72
2022/06/05 18:24:21;;;;;;;6.72;1.77;;;;;;;;;;5095040;28;20111;-71
2022/06/05 18:26:56;;;;;;;2.58;1.60;;;;;;;;;;5094726;28;20105;-71
2022/06/05 18:29:33;;;;;;;2.17;1.80;;;;;;;;;;5094578;28;20043;-71
2022/06/05 18:32:09;;;;;;;2.70;1.90;;;;;;;;;;5095305;28;20044;-71
2022/06/05 18:34:41;;;;;;;1.77;1.63;;;;;;;;;;5094692;28;20083;-71
2022/06/05 18:39:57;;;;;;;3.03;1.90;;;;;;;;;;5094677;28;20109;-71
2022/06/05 18:42:34;;;;;;;3.30;1.90;;;;;;;;;;5094750;28;20453;-71
2022/06/05 18:45:01;;;;;;;2.65;2.03;;;;;;;;;;5093831;28;20036;-70
2022/06/05 18:47:32;;;;;;;2.30;2.08;;;;;;;;;;5094515;28;20055;-70
2022/06/05 18:49:58;;;;;;;2.80;1.80;;;;;;;;;;5094301;28;20093;-71
2022/06/05 18:52:26;;;;;;;2.95;1.75;;;;;;;;;;5094815;28;20063;-71
2022/06/05 18:54:53;;;;;;;7.00;1.80;;;;;;;;;;5094542;28;20044;-70
2022/06/05 18:57:19;;;;;;;2.20;1.85;;;;;;;;;;5094592;28;20040;-71
2022/06/05 18:59:48;;;;;;;4.72;2.10;;;;;;;;;;5094092;28;20139;-71
2022/06/05 19:02:19;;;;;;;2.97;1.98;;;;;;;;;;5093739;28;20089;-71
2022/06/05 19:04:48;;;;;;;2.35;1.83;;;;;;;;;;5093689;28;20044;-71
2022/06/05 19:07:26;;;;;;;2.45;1.70;;;;;;;;;;5076523;28;20048;-71
2022/06/05 19:09:53;;;;;;;3.13;1.67;;;;;;;;;;5074816;28;20120;-71
2022/06/05 19:12:19;;;;;;;5.13;1.80;;;;;;;;;;5074535;28;20040;-71
2022/06/05 19:14:56;;;;;;;2.65;1.70;;;;;;;;;;5074788;28;20029;-71
2022/06/05 19:17:26;;;;;;;2.45;1.65;;;;;;;;;;5075055;28;20056;-71
2022/06/05 19:20:00;;;;;;;4.60;1.70;;;;;;;;;;5074248;28;20098;-71
2022/06/05 19:22:30;;;;;;;2.42;1.92;;;;;;;;;;5074761;28;20257;-71
2022/06/05 19:24:56;;;;;;;;;;;;;;;;;;5075363;28;20097;-71
2022/06/05 19:27:22;;;;;;;5.75;2.17;;;;;;;;;;5074155;28;20310;-71
2022/06/05 19:29:50;;;;;;;4.60;2.10;;;;;;;;;;5074266;28;20556;-71
2022/06/05 19:32:17;;;;;;;5.28;2.30;;;;;;;;;;5074515;28;20093;-71
2022/06/05 19:34:51;;;;;;;2.63;2.10;;;;;;;;;;5074478;28;20048;-71
2022/06/05 19:40:11;;;;;;;2.03;1.67;;;;;;;;;;5074486;28;20510;-71
2022/06/05 19:42:44;;;;;;;3.65;1.90;;;;;;;;;;5074085;28;20028;-71
2022/06/05 19:45:26;;;;;;;4.40;2.22;;;;;;;;;;5074971;28;20044;-71
2022/06/05 19:47:53;;;;;;;2.92;2.10;;;;;;;;;;5074193;28;20131;-71
2022/06/05 19:50:37;;;;;;;3.35;2.08;;;;;;;;;;5074293;28;20120;-71
2022/06/05 19:53:04;;;;;;;2.08;1.90;;;;;;;;;;5074039;28;20115;-71
2022/06/05 19:55:36;;;;;;;4.40;2.60;;;;;;;;;;5074602;28;20040;-71
2022/06/05 19:58:06;;;;;;;5.72;2.13;;;;;;;;;;5073744;28;20052;-71
2022/06/05 20:00:34;;;;;;;4.78;1.98;;;;;;;;;;5073710;28;20099;-71
2022/06/05 20:03:00;;;;;;;3.95;2.63;;;;;;;;;;5073954;28;20056;-71
2022/06/05 20:05:32;;;;;;;3.38;2.00;;;;;;;;;;5074405;28;20121;-71
2022/06/05 20:08:21;;;;;;;3.53;2.05;;;;;;;;;;5074145;28;20052;-71
2022/06/05 20:10:59;;;;;;;3.67;2.28;;;;;;;;;;5065838;28;20049;-71
2022/06/05 20:13:29;;;;;;;4.43;2.08;;;;;;;;;;5074094;28;20028;-71
2022/06/05 20:16:00;;;;;;;3.10;2.30;;;;;;;;;;5074265;28;20045;-71
2022/06/05 20:18:30;;;;;;;3.40;2.13;;;;;;;;;;5074447;28;20044;-71
2022/06/05 20:21:15;;;;;;;5.20;2.20;;;;;;;;;;5073810;28;20036;-71
2022/06/05 20:23:47;;;;;;;2.97;2.20;;;;;;;;;;5074416;28;20189;-71
2022/06/05 20:26:15;;;;;;;3.97;2.60;;;;;;;;;;5074199;28;20520;-71
2022/06/05 20:28:49;;;;;;;2.30;2.10;;;;;;;;;;5074036;28;20041;-71
2022/06/05 20:31:21;;;;;;;5.22;2.15;;;;;;;;;;5073469;28;20048;-71
2022/06/05 20:34:05;;;;;;;7.13;3.17;;;;;;;;;;5076255;28;20440;-71
2022/06/05 20:36:49;;;;;;;3.60;2.40;;;;;;;;;;5077668;28;20040;-71
2022/06/05 20:39:29;;;;;;;4.47;2.50;;;;;;;;;;5078279;28;20127;-71
2022/06/05 20:41:56;;;;;;;2.97;2.42;;;;;;;;;;5077723;28;20046;-71
2022/06/05 20:44:35;;;;;;;3.30;2.35;;;;;;;;;;5077521;28;20052;-71
2022/06/05 20:47:16;;;;;;;3.40;2.35;;;;;;;;;;5077148;28;20048;-71
2022/06/05 20:49:55;;;;;;;4.28;2.28;;;;;;;;;;5077591;28;20041;-71
2022/06/05 20:52:23;;;;;;;2.85;2.40;;;;;;;;;;5077483;28;20036;-71
2022/06/05 20:54:52;;;;;;;5.00;2.53;;;;;;;;;;5077590;28;20107;-71
2022/06/05 20:57:20;;;;;;;4.13;2.08;;;;;;;;;;5077617;28;20098;-71
2022/06/05 20:59:47;;;;;;;5.28;2.30;;;;;;;;;;5077259;28;20484;-71
2022/06/05 21:07:46;;;;;;;3.13;2.42;;;;;;;;;;5076331;28;20050;-70
2022/06/05 21:10:13;;;;;;;4.57;2.60;;;;;;;;;;5076790;28;20044;-70
2022/06/05 21:18:16;;;;;;;4.25;2.55;;;;;;;;;;5076378;28;20039;-71
2022/06/05 21:20:44;;;;;;;4.88;2.42;;;;;;;;;;5077063;28;20036;-70
2022/06/05 21:23:11;;;;;;;7.55;2.72;;;;;;;;;;5076757;28;20045;-70
2022/06/05 21:25:42;;;;;;;4.10;2.30;;;;;;;;;;5075401;28;20078;-70
2022/06/05 21:28:17;;;;;;;3.28;2.40;;;;;;;;;;5076590;28;20040;-70
2022/06/05 21:30:45;;;;;;;3.08;2.20;;;;;;;;;;5089200;28;20077;-70
2022/06/05 21:33:11;;;;;;;2.58;2.35;;;;;;;;;;5096472;28;20035;-70
2022/06/05 21:35:42;;;;;;;5.00;2.50;;;;;;;;;;5096728;28;20036;-70
2022/06/05 21:38:11;;;;;;;2.55;2.35;;;;;;;;;;5096991;28;20063;-70
2022/06/05 21:41:00;;;;;;;3.45;2.58;;;;;;;;;;5096300;28;20036;-70
2022/06/05 21:43:27;;;;;;;4.07;2.45;;;;;;;;;;5096506;28;20486;-70
2022/06/05 21:46:01;;;;;;;3.88;2.33;;;;;;;;;;5096639;28;20048;-70
2022/06/05 21:48:48;;;;;;;5.78;2.40;;;;;;;;;;5096584;28;20036;-70
2022/06/05 21:51:16;;;;;;;5.25;2.50;;;;;;;;;;5096910;28;20092;-70
2022/06/05 21:53:46;;;;;;;3.30;2.20;;;;;;;;;;5096832;28;20047;-70
2022/06/05 21:56:12;;;;;;;;;;;;;;;;;;5097307;28;20048;-70
2022/06/05 21:58:38;;;;;;;3.60;2.30;;;;;;;;;;5096475;28;19908;-70
2022/06/05 22:01:05;;;;;;;3.63;2.42;;;;;;;;;;5095497;28;20079;-70
2022/06/05 22:03:32;;;;;;;3.65;2.35;;;;;;;;;;5096180;28;20557;-70
2022/06/05 22:06:00;;;;;;;6.78;2.78;;;;;;;;;;5096382;28;20482;-70
2022/06/05 22:08:26;;;;;;;7.97;2.40;;;;;;;;;;5096555;28;20039;-70
2022/06/05 22:10:52;;;;;;;3.58;2.50;;;;;;;;;;5096497;28;20055;-70
2022/06/05 22:13:20;;;;;;;2.30;1.88;;;;;;;;;;5096133;28;20450;-70
2022/06/05 22:15:47;;;;;;;7.00;2.30;;;;;;;;;;5096866;28;20068;-70
2022/06/05 22:18:13;;;;;;;2.28;1.90;;;;;;;;;;5096064;28;20048;-70
2022/06/05 22:20:39;;;;;;;5.25;1.90;;;;;;;;;;5096133;28;20067;-70
2022/06/05 22:23:06;;;;;;;3.60;2.00;;;;;;;;;;5096016;28;20040;-70
2022/06/05 22:25:36;;;;;;;3.92;2.17;;;;;;;;;;5096014;28;20040;-70
2022/06/05 22:28:03;;;;;;;3.15;1.90;;;;;;;;;;5096148;28;20054;-70
2022/06/05 22:30:30;;;;;;;3.33;1.88;;;;;;;;;;5096337;28;20119;-70
2022/06/05 22:32:56;;;;;;;3.72;2.15;;;;;;;;;;5096377;28;20075;-70
2022/06/05 22:35:22;;;;;;;2.35;2.13;;;;;;;;;;5095785;28;20072;-70
2022/06/05 22:37:49;;;;;;;5.07;2.30;;;;;;;;;;5095720;28;20040;-70
2022/06/05 22:40:16;;;;;;;3.35;2.10;;;;;;;;;;5095945;28;20047;-70
2022/06/05 22:42:42;;;;;;;3.53;2.20;;;;;;;;;;5096183;28;20036;-70
2022/06/05 22:45:09;;;;;;;7.03;2.20;;;;;;;;;;5096245;28;20039;-70
2022/06/05 22:47:35;;;;;;;4.45;2.10;;;;;;;;;;5095503;28;20510;-70
2022/06/05 22:50:01;;;;;;;5.88;1.98;;;;;;;;;;5095311;28;20046;-70
2022/06/05 22:52:28;;;;;;;3.70;1.92;;;;;;;;;;5095457;28;20066;-70
2022/06/05 22:54:54;;;;;;;2.95;1.90;;;;;;;;;;5095328;28;20055;-70
2022/06/05 22:57:20;;;;;;;2.70;1.83;;;;;;;;;;5095637;28;20036;-70
2022/06/05 22:59:46;;;;;;;2.33;1.90;;;;;;;;;;5095796;28;20047;-70
2022/06/05 23:02:12;;;;;;;2.85;1.60;;;;;;;;;;5095221;28;20036;-70
2022/06/05 23:04:38;;;;;;;1.63;1.50;;;;;;;;;;5095349;28;20048;-70
2022/06/05 23:07:04;;;;;;;5.85;1.95;;;;;;;;;;5094683;28;20639;-70
2022/06/05 23:09:31;;;;;;;1.92;1.50;;;;;;;;;;5095078;28;20036;-70
2022/06/05 23:11:58;;;;;;;3.90;1.95;;;;;;;;;;5095090;28;20032;-70
2022/06/05 23:14:24;;;;;;;1.95;1.75;;;;;;;;;;5093951;28;20413;-70
2022/06/05 23:16:51;;;;;;;4.15;1.75;;;;;;;;;;5094705;28;20116;-70
2022/06/05 23:22:02;;;;;;;3.08;1.85;;;;;;;;;;5094454;28;20540;-70
2022/06/05 23:24:28;;;;;;;3.90;2.03;;;;;;;;;;5095486;28;20040;-70
2022/06/05 23:26:56;;;;;;;3.03;2.10;;;;;;;;;;5094614;28;20054;-70
2022/06/05 23:29:23;;;;;;;2.30;1.90;;;;;;;;;;5094782;28;20036;-70
2022/06/05 23:31:49;;;;;;;4.90;2.08;;;;;;;;;;5094477;28;20119;-70
2022/06/05 23:34:18;;;;;;;3.30;2.00;;;;;;;;;;5094628;28;20040;-70
2022/06/05 23:36:45;;;;;;;3.95;2.40;;;;;;;;;;5094661;28;20047;-70
2022/06/05 23:39:11;;;;;;;3.25;2.42;;;;;;;;;;5095016;28;20044;-70
2022/06/05 23:41:37;;;;;;;4.25;2.38;;;;;;;;;;5094751;28;20044;-70
2022/06/05 23:44:03;;;;;;;2.88;2.30;;;;;;;;;;5094742;28;20040;-70
2022/06/05 23:46:30;;;;;;;4.68;2.53;;;;;;;;;;5094821;28;20078;-70
2022/06/05 23:48:59;;;;;;;2.88;2.38;;;;;;;;;;5094757;28;20040;-70
2022/06/05 23:51:26;;;;;;;2.88;1.98;;;;;;;;;;5094832;28;20040;-70
2022/06/05 23:53:52;;;;;;;4.03;2.80;;;;;;;;;;5094909;28;20545;-70
2022/06/05 23:56:20;;;;;;;3.30;2.53;;;;;;;;;;5094515;28;20040;-70
2022/06/05 23:58:47;;;;;;;5.88;2.53;;;;;;;;;;5094748;28;20055;-70
